Time;durP1;ratioP1;P1;durP2;ratioP2;P2;SDS_P1;SDS_P2;PMS_P1;PMS_P2;Temp;Humidity;BMP_temperature;BMP_pressure;BME280_temperature;BME280_humidity;BME280_pressure;Samples;Min_cycle;Max_cycle;Signal;HPM_P1;HPM_P2
2022/03/30 00:00:41;;;;;;;39.75;23.42;;;;;;;;;;5127321;27;20322;-71
2022/03/30 00:03:07;;;;;;;38.60;23.88;;;;;;;;;;5122511;27;20429;-70
2022/03/30 00:05:32;;;;;;;41.20;24.88;;;;;;;;;;5126274;27;20177;-70
2022/03/30 00:07:57;;;;;;;39.03;23.88;;;;;;;;;;5108538;27;20113;-70
2022/03/30 00:10:23;;;;;;;36.17;22.75;;;;;;;;;;5121433;27;20366;-69
2022/03/30 00:12:48;;;;;;;40.53;23.63;;;;;;;;;;5125324;27;20433;-71
2022/03/30 00:15:14;;;;;;;39.75;23.63;;;;;;;;;;5123183;27;20015;-70
2022/03/30 00:17:40;;;;;;;39.35;24.90;;;;;;;;;;5124209;27;20252;-70
2022/03/30 00:20:05;;;;;;;37.72;22.55;;;;;;;;;;5127724;27;20406;-71
2022/03/30 00:22:30;;;;;;;38.33;23.95;;;;;;;;;;5125067;27;20083;-69
2022/03/30 00:24:56;;;;;;;39.10;23.33;;;;;;;;;;5105905;27;20050;-69
2022/03/30 00:27:21;;;;;;;35.33;23.55;;;;;;;;;;5108925;27;20031;-70
2022/03/30 00:29:47;;;;;;;38.90;23.90;;;;;;;;;;5118798;27;20103;-70
2022/03/30 00:32:12;;;;;;;38.05;23.08;;;;;;;;;;5103712;27;20024;-70
2022/03/30 00:34:39;;;;;;;35.42;22.45;;;;;;;;;;5103468;28;20017;-70
2022/03/30 00:37:04;;;;;;;37.08;22.90;;;;;;;;;;5104437;28;20026;-69
2022/03/30 00:39:30;;;;;;;39.35;23.65;;;;;;;;;;5104757;28;20031;-70
2022/03/30 00:41:55;;;;;;;37.50;22.70;;;;;;;;;;5118782;27;20512;-70
2022/03/30 00:44:20;;;;;;;43.00;23.98;;;;;;;;;;5124063;27;20027;-69
2022/03/30 00:46:46;;;;;;;35.28;22.95;;;;;;;;;;5104987;27;20118;-71
2022/03/30 00:49:12;;;;;;;37.97;22.25;;;;;;;;;;5090230;27;20026;-71
2022/03/30 00:51:38;;;;;;;37.08;21.90;;;;;;;;;;5125761;27;20362;-69
2022/03/30 00:54:04;;;;;;;35.72;21.58;;;;;;;;;;5107619;27;20015;-69
2022/03/30 00:56:31;;;;;;;31.80;19.80;;;;;;;;;;5103549;27;20600;-69
2022/03/30 00:58:56;;;;;;;34.22;20.80;;;;;;;;;;5112128;27;20515;-70
2022/03/30 01:01:22;;;;;;;34.40;19.83;;;;;;;;;;5147353;27;20034;-70
2022/03/30 01:03:48;;;;;;;29.40;19.48;;;;;;;;;;5143047;27;20026;-69
2022/03/30 01:06:13;;;;;;;32.47;19.48;;;;;;;;;;5146149;27;20404;-69
2022/03/30 01:08:38;;;;;;;33.25;19.55;;;;;;;;;;5145023;27;20042;-69
2022/03/30 01:11:04;;;;;;;35.97;20.73;;;;;;;;;;5125656;27;20027;-69
2022/03/30 01:13:30;;;;;;;37.90;20.60;;;;;;;;;;5107098;27;20497;-70
2022/03/30 01:15:55;;;;;;;30.45;19.10;;;;;;;;;;5108342;27;20011;-70
2022/03/30 01:18:21;;;;;;;29.55;19.63;;;;;;;;;;5124463;27;20114;-70
2022/03/30 01:20:47;;;;;;;32.55;19.38;;;;;;;;;;5111042;27;20019;-69
2022/03/30 01:23:12;;;;;;;33.47;18.40;;;;;;;;;;5106586;27;20114;-70
2022/03/30 01:25:38;;;;;;;32.75;18.98;;;;;;;;;;5104742;27;20098;-70
2022/03/30 01:28:04;;;;;;;35.25;20.25;;;;;;;;;;5124751;27;21380;-69
2022/03/30 01:33:14;;;;;;;31.92;19.75;;;;;;;;;;5122957;27;20100;-70
2022/03/30 01:35:39;;;;;;;31.85;18.48;;;;;;;;;;5125610;27;20531;-70
2022/03/30 01:38:05;;;;;;;29.52;18.33;;;;;;;;;;5106420;27;20075;-69
2022/03/30 01:40:31;;;;;;;39.65;19.70;;;;;;;;;;5103561;27;20115;-70
2022/03/30 01:42:56;;;;;;;34.40;19.13;;;;;;;;;;5107167;27;20449;-71
2022/03/30 01:45:22;;;;;;;34.17;18.90;;;;;;;;;;5104747;27;20028;-70
2022/03/30 01:47:52;;;;;;;29.23;18.27;;;;;;;;;;5124715;27;20461;-70
2022/03/30 01:50:17;;;;;;;33.22;18.10;;;;;;;;;;5125187;27;20015;-69
2022/03/30 01:52:43;;;;;;;32.58;18.42;;;;;;;;;;5104915;27;20020;-69
2022/03/30 01:55:08;;;;;;;34.95;18.10;;;;;;;;;;5122069;27;20046;-69
2022/03/30 01:57:34;;;;;;;29.13;18.40;;;;;;;;;;5105269;27;20027;-69
2022/03/30 02:00:03;;;;;;;35.72;18.15;;;;;;;;;;5088129;27;20080;-69
2022/03/30 02:02:29;;;;;;;31.45;17.60;;;;;;;;;;5104124;27;20046;-70
2022/03/30 02:04:54;;;;;;;31.73;17.15;;;;;;;;;;5124336;27;20027;-70
2022/03/30 02:07:20;;;;;;;26.73;16.95;;;;;;;;;;5144278;27;20045;-69
2022/03/30 02:09:46;;;;;;;29.80;17.88;;;;;;;;;;5105698;27;20019;-69
2022/03/30 02:12:11;;;;;;;34.03;16.63;;;;;;;;;;5125845;27;20125;-69
2022/03/30 02:14:36;;;;;;;31.02;17.35;;;;;;;;;;5106729;27;20035;-70
2022/03/30 02:17:02;;;;;;;30.40;17.58;;;;;;;;;;5123834;27;20018;-70
2022/03/30 02:19:27;;;;;;;36.95;15.90;;;;;;;;;;5127115;27;20098;-70
2022/03/30 02:21:52;;;;;;;29.65;16.17;;;;;;;;;;5141418;27;20476;-71
2022/03/30 02:24:17;;;;;;;30.73;17.30;;;;;;;;;;5123808;27;20097;-70
2022/03/30 02:26:43;;;;;;;29.40;16.75;;;;;;;;;;5108797;27;20018;-70
2022/03/30 02:29:08;;;;;;;30.38;17.35;;;;;;;;;;5142092;27;20362;-69
2022/03/30 02:31:34;;;;;;;25.92;16.80;;;;;;;;;;5125346;27;20696;-70
2022/03/30 02:34:00;;;;;;;29.00;16.35;;;;;;;;;;5105739;27;20022;-70
2022/03/30 02:36:25;;;;;;;33.90;17.88;;;;;;;;;;5125497;27;20371;-69
2022/03/30 02:38:50;;;;;;;32.35;17.42;;;;;;;;;;5125154;27;20034;-69
2022/03/30 02:41:17;;;;;;;33.03;16.63;;;;;;;;;;5123944;27;20142;-69
2022/03/30 02:43:42;;;;;;;27.85;16.45;;;;;;;;;;5140994;27;20109;-69
2022/03/30 02:46:07;;;;;;;29.13;16.52;;;;;;;;;;5107937;27;20513;-69
2022/03/30 02:48:35;;;;;;;34.05;16.50;;;;;;;;;;5142537;27;20384;-69
2022/03/30 02:51:02;;;;;;;27.38;15.73;;;;;;;;;;5123774;27;20019;-69
2022/03/30 02:53:28;;;;;;;29.98;15.65;;;;;;;;;;5125906;27;20382;-71
2022/03/30 02:55:53;;;;;;;27.45;15.68;;;;;;;;;;5140977;27;20019;-70
2022/03/30 02:58:19;;;;;;;31.75;16.27;;;;;;;;;;5143651;27;20148;-69
2022/03/30 03:00:44;;;;;;;31.17;16.17;;;;;;;;;;5144694;27;20739;-70
2022/03/30 03:03:10;;;;;;;32.50;17.20;;;;;;;;;;5103654;27;20042;-69
2022/03/30 03:05:36;;;;;;;32.95;15.68;;;;;;;;;;5144474;27;20083;-70
2022/03/30 03:08:02;;;;;;;37.85;16.33;;;;;;;;;;5126101;27;20019;-69
2022/03/30 03:10:28;;;;;;;30.20;15.82;;;;;;;;;;5143632;27;20031;-70
2022/03/30 03:12:53;;;;;;;30.45;16.73;;;;;;;;;;5143209;27;20014;-69
2022/03/30 03:15:19;;;;;;;29.05;15.73;;;;;;;;;;5124733;27;20421;-70
2022/03/30 03:17:44;;;;;;;31.20;16.77;;;;;;;;;;5141160;27;20015;-70
2022/03/30 03:20:11;;;;;;;36.28;16.95;;;;;;;;;;5144684;27;20242;-69
2022/03/30 03:22:38;;;;;;;31.13;16.73;;;;;;;;;;5126579;27;20079;-69
2022/03/30 03:25:03;;;;;;;30.98;16.15;;;;;;;;;;5123082;27;20049;-70
2022/03/30 03:27:29;;;;;;;29.38;16.42;;;;;;;;;;5143502;27;20031;-70
2022/03/30 03:29:54;;;;;;;34.55;16.50;;;;;;;;;;5139245;27;20342;-70
2022/03/30 03:32:19;;;;;;;30.77;16.27;;;;;;;;;;5126558;27;20021;-70
2022/03/30 03:34:44;;;;;;;29.90;16.77;;;;;;;;;;5147520;27;20052;-69
2022/03/30 03:37:10;;;;;;;31.45;16.95;;;;;;;;;;5129645;27;20536;-69
2022/03/30 03:39:35;;;;;;;33.13;17.52;;;;;;;;;;5127246;27;20026;-70
2022/03/30 03:42:00;;;;;;;35.17;16.52;;;;;;;;;;5146091;27;20042;-70
2022/03/30 03:44:25;;;;;;;30.90;17.17;;;;;;;;;;5126064;27;20079;-71
2022/03/30 03:46:51;;;;;;;34.55;16.58;;;;;;;;;;5144559;27;20022;-69
2022/03/30 03:49:17;;;;;;;34.15;17.92;;;;;;;;;;5111999;27;20492;-70
2022/03/30 03:51:42;;;;;;;34.80;17.15;;;;;;;;;;5129237;27;20019;-70
2022/03/30 03:54:09;;;;;;;30.60;16.67;;;;;;;;;;5146759;27;20136;-69
2022/03/30 03:56:34;;;;;;;30.15;16.80;;;;;;;;;;5120563;27;20222;-71
2022/03/30 03:59:00;;;;;;;32.45;16.83;;;;;;;;;;5123981;27;20046;-70
2022/03/30 04:01:27;;;;;;;32.85;17.65;;;;;;;;;;5108067;27;20026;-70
2022/03/30 04:03:52;;;;;;;34.60;18.55;;;;;;;;;;5103550;27;20015;-70
2022/03/30 04:06:18;;;;;;;30.67;16.60;;;;;;;;;;5109295;27;20678;-70
2022/03/30 04:08:43;;;;;;;35.33;17.85;;;;;;;;;;5125538;27;20516;-69
2022/03/30 04:11:09;;;;;;;28.92;17.08;;;;;;;;;;5105874;27;20072;-69
2022/03/30 04:13:36;;;;;;;29.00;17.73;;;;;;;;;;5089799;27;20066;-69
2022/03/30 04:16:01;;;;;;;37.25;17.75;;;;;;;;;;5125489;27;20683;-69
2022/03/30 04:18:26;;;;;;;32.17;17.80;;;;;;;;;;5107279;27;20442;-71
2022/03/30 04:20:51;;;;;;;33.05;17.45;;;;;;;;;;5125428;27;20102;-69
2022/03/30 04:23:17;;;;;;;33.30;17.48;;;;;;;;;;5121528;27;20184;-68
2022/03/30 04:25:43;;;;;;;34.40;17.85;;;;;;;;;;5146021;27;20399;-69
2022/03/30 04:28:08;;;;;;;34.97;17.85;;;;;;;;;;5107850;27;20019;-69
2022/03/30 04:30:34;;;;;;;32.95;16.70;;;;;;;;;;5129613;27;20030;-70
2022/03/30 04:32:59;;;;;;;30.95;17.77;;;;;;;;;;5143919;27;20019;-69
2022/03/30 04:35:25;;;;;;;32.80;17.08;;;;;;;;;;5119316;27;20026;-70
2022/03/30 04:37:54;;;;;;;33.92;17.10;;;;;;;;;;5125753;27;20019;-69
2022/03/30 04:40:19;;;;;;;35.35;17.73;;;;;;;;;;5096890;27;20334;-70
2022/03/30 04:42:45;;;;;;;30.13;16.95;;;;;;;;;;5123895;27;20065;-69
2022/03/30 04:45:11;;;;;;;31.20;18.23;;;;;;;;;;5121271;27;20110;-68
2022/03/30 04:47:36;;;;;;;30.52;17.08;;;;;;;;;;5124661;27;20122;-69
2022/03/30 04:50:02;;;;;;;33.72;18.90;;;;;;;;;;5123120;27;20461;-69
2022/03/30 04:52:27;;;;;;;29.35;16.58;;;;;;;;;;5106945;27;20036;-69
2022/03/30 04:54:53;;;;;;;36.63;19.70;;;;;;;;;;5101806;28;20046;-69
2022/03/30 04:57:18;;;;;;;36.65;19.88;;;;;;;;;;5105314;28;20110;-70
2022/03/30 04:59:44;;;;;;;32.35;18.10;;;;;;;;;;5102881;28;20044;-71
2022/03/30 05:02:09;;;;;;;34.35;17.48;;;;;;;;;;5084972;28;20028;-68
2022/03/30 05:04:35;;;;;;;34.20;17.98;;;;;;;;;;5087805;28;20494;-68
2022/03/30 05:07:00;;;;;;;32.50;18.75;;;;;;;;;;5104239;28;20023;-69
2022/03/30 05:09:25;;;;;;;35.72;18.60;;;;;;;;;;5104113;28;20445;-69
2022/03/30 05:11:51;;;;;;;36.17;18.75;;;;;;;;;;5105133;28;20119;-70
2022/03/30 05:14:17;;;;;;;31.48;18.38;;;;;;;;;;5100553;28;20377;-69
2022/03/30 05:16:42;;;;;;;35.15;19.23;;;;;;;;;;5106836;28;20034;-68
2022/03/30 05:19:08;;;;;;;35.28;19.55;;;;;;;;;;5103202;28;20299;-70
2022/03/30 05:21:34;;;;;;;35.95;18.88;;;;;;;;;;5104797;28;20035;-68
2022/03/30 05:23:59;;;;;;;37.83;20.02;;;;;;;;;;5100398;28;20042;-69
2022/03/30 05:26:26;;;;;;;38.17;20.55;;;;;;;;;;5122285;27;20385;-68
2022/03/30 05:28:51;;;;;;;35.05;21.30;;;;;;;;;;5121689;27;20158;-68
2022/03/30 05:31:17;;;;;;;46.22;23.27;;;;;;;;;;5106719;27;20479;-70
2022/03/30 05:33:42;;;;;;;47.65;24.42;;;;;;;;;;5124146;27;20348;-69
2022/03/30 05:36:07;;;;;;;43.17;24.58;;;;;;;;;;5124453;27;20135;-69
2022/03/30 05:38:34;;;;;;;51.55;23.30;;;;;;;;;;5125747;27;20042;-70
2022/03/30 05:40:59;;;;;;;49.83;24.00;;;;;;;;;;5126888;27;20520;-71
2022/03/30 05:43:25;;;;;;;46.33;23.45;;;;;;;;;;5124233;27;20022;-70
2022/03/30 05:45:51;;;;;;;47.05;23.67;;;;;;;;;;5125559;27;20046;-70
2022/03/30 05:48:17;;;;;;;48.30;22.42;;;;;;;;;;5108184;27;20389;-70
2022/03/30 05:50:42;;;;;;;48.28;23.92;;;;;;;;;;5146125;27;20023;-69
2022/03/30 05:53:07;;;;;;;46.35;22.08;;;;;;;;;;5124784;27;20025;-70
2022/03/30 05:55:33;;;;;;;41.65;22.10;;;;;;;;;;5142777;27;20419;-70
2022/03/30 05:58:00;;;;;;;49.53;22.20;;;;;;;;;;5107921;27;20134;-69
2022/03/30 06:00:28;;;;;;;48.60;22.33;;;;;;;;;;5107971;27;20442;-70
2022/03/30 06:02:54;;;;;;;45.05;23.00;;;;;;;;;;5122974;27;20049;-69
2022/03/30 06:05:19;;;;;;;48.45;22.35;;;;;;;;;;5126536;27;20014;-69
2022/03/30 06:07:45;;;;;;;45.88;24.50;;;;;;;;;;5126821;27;20439;-69
2022/03/30 06:10:10;;;;;;;49.25;22.17;;;;;;;;;;5140847;27;20023;-70
2022/03/30 06:12:35;;;;;;;48.45;23.90;;;;;;;;;;5144901;27;20023;-69
2022/03/30 06:15:01;;;;;;;49.30;22.73;;;;;;;;;;5123556;27;20015;-69
2022/03/30 06:17:27;;;;;;;52.45;24.85;;;;;;;;;;5144217;27;20422;-69
2022/03/30 06:19:53;;;;;;;49.33;23.65;;;;;;;;;;5126400;27;20436;-68
2022/03/30 06:22:18;;;;;;;44.95;23.15;;;;;;;;;;5126119;27;20023;-69
2022/03/30 06:24:44;;;;;;;45.30;24.17;;;;;;;;;;5123215;27;20026;-69
2022/03/30 06:27:09;;;;;;;52.50;24.08;;;;;;;;;;5125756;27;20037;-69
2022/03/30 06:29:36;;;;;;;48.90;25.20;;;;;;;;;;5125096;27;20031;-69
2022/03/30 06:32:02;;;;;;;47.50;24.52;;;;;;;;;;5145000;27;20026;-70
2022/03/30 06:34:27;;;;;;;47.35;23.02;;;;;;;;;;5145380;27;20330;-69
2022/03/30 06:36:53;;;;;;;43.67;23.88;;;;;;;;;;5145093;27;20045;-69
2022/03/30 06:39:19;;;;;;;50.03;24.08;;;;;;;;;;5086040;27;20047;-69
2022/03/30 06:41:44;;;;;;;45.00;23.15;;;;;;;;;;5125558;27;20070;-70
2022/03/30 06:44:09;;;;;;;48.63;26.10;;;;;;;;;;5085103;27;20060;-70
2022/03/30 06:46:38;;;;;;;46.97;24.65;;;;;;;;;;5107308;27;20027;-69
2022/03/30 06:49:05;;;;;;;45.00;23.85;;;;;;;;;;5102711;27;20023;-70
2022/03/30 06:51:30;;;;;;;47.75;24.35;;;;;;;;;;5089880;27;20022;-68
2022/03/30 06:53:56;;;;;;;39.72;24.17;;;;;;;;;;5104945;27;20056;-68
2022/03/30 06:56:21;;;;;;;44.60;25.73;;;;;;;;;;5107071;27;20023;-69
2022/03/30 06:58:47;;;;;;;46.70;25.40;;;;;;;;;;5103415;27;20340;-69
2022/03/30 07:01:14;;;;;;;50.13;25.95;;;;;;;;;;5122799;27;20099;-69
2022/03/30 07:03:39;;;;;;;48.63;26.08;;;;;;;;;;5103362;27;20027;-70
2022/03/30 07:06:05;;;;;;;45.53;26.85;;;;;;;;;;5103680;27;20042;-70
2022/03/30 07:11:14;;;;;;;50.08;24.95;;;;;;;;;;5122922;27;20050;-69
2022/03/30 07:13:39;;;;;;;41.83;24.38;;;;;;;;;;5125481;27;20498;-70
2022/03/30 07:16:04;;;;;;;82.32;28.65;;;;;;;;;;5127859;27;20501;-69
2022/03/30 07:18:30;;;;;;;45.10;24.25;;;;;;;;;;5128922;27;20419;-70
2022/03/30 07:20:56;;;;;;;37.72;22.55;;;;;;;;;;5128936;27;20106;-70
2022/03/30 07:23:23;;;;;;;37.08;21.70;;;;;;;;;;5127992;27;20039;-69
2022/03/30 07:25:48;;;;;;;33.60;20.40;;;;;;;;;;5146487;27;20037;-70
2022/03/30 07:28:16;;;;;;;35.03;20.45;;;;;;;;;;5126557;27;20457;-69
2022/03/30 07:30:43;;;;;;;31.05;19.48;;;;;;;;;;5129874;27;20045;-69
2022/03/30 07:33:08;;;;;;;31.95;18.75;;;;;;;;;;5142684;27;20044;-69
2022/03/30 07:35:33;;;;;;;26.10;16.17;;;;;;;;;;5149246;27;20026;-70
2022/03/30 07:38:00;;;;;;;28.33;16.60;;;;;;;;;;5130396;27;20068;-69
2022/03/30 07:40:26;;;;;;;25.58;14.85;;;;;;;;;;5109140;27;20054;-69
2022/03/30 07:42:51;;;;;;;21.05;13.43;;;;;;;;;;5128959;27;20070;-69
2022/03/30 07:45:18;;;;;;;21.02;13.23;;;;;;;;;;5145758;27;20079;-71
2022/03/30 07:47:44;;;;;;;20.83;11.85;;;;;;;;;;5127303;27;20102;-70
2022/03/30 07:50:10;;;;;;;22.00;12.43;;;;;;;;;;5127604;27;20101;-69
2022/03/30 07:52:35;;;;;;;17.08;11.27;;;;;;;;;;5129542;27;20037;-70
2022/03/30 07:55:03;;;;;;;17.27;11.10;;;;;;;;;;5108534;27;20019;-70
2022/03/30 07:57:28;;;;;;;15.77;10.55;;;;;;;;;;5128919;27;20019;-70
2022/03/30 07:59:54;;;;;;;13.60;9.75;;;;;;;;;;5128163;27;20484;-70
2022/03/30 08:02:19;;;;;;;12.18;9.10;;;;;;;;;;5125938;27;20417;-69
2022/03/30 08:04:44;;;;;;;13.25;9.35;;;;;;;;;;5127663;27;20100;-69
2022/03/30 08:07:10;;;;;;;14.35;9.43;;;;;;;;;;5125760;27;20103;-69
2022/03/30 08:09:35;;;;;;;12.68;8.88;;;;;;;;;;5125311;27;20095;-69
2022/03/30 08:12:01;;;;;;;11.82;9.32;;;;;;;;;;5108459;27;20015;-69
2022/03/30 08:14:26;;;;;;;11.48;8.90;;;;;;;;;;5087802;27;20102;-68
2022/03/30 08:16:52;;;;;;;11.07;8.73;;;;;;;;;;5107018;27;20501;-69
2022/03/30 08:19:18;;;;;;;13.02;8.95;;;;;;;;;;5105133;27;20109;-70
2022/03/30 08:24:27;;;;;;;12.43;9.00;;;;;;;;;;5107538;27;20038;-68
2022/03/30 08:26:52;;;;;;;12.07;9.10;;;;;;;;;;5107077;27;20019;-69
2022/03/30 08:29:18;;;;;;;11.82;8.32;;;;;;;;;;5123461;27;20255;-70
2022/03/30 08:31:43;;;;;;;11.55;8.60;;;;;;;;;;5107605;27;20427;-70
2022/03/30 08:34:09;;;;;;;11.02;7.85;;;;;;;;;;5102825;27;20015;-70
2022/03/30 08:36:34;;;;;;;11.00;7.45;;;;;;;;;;5125927;27;20024;-69
2022/03/30 08:39:02;;;;;;;9.52;7.82;;;;;;;;;;5125367;27;20080;-70
2022/03/30 08:41:29;;;;;;;9.90;7.65;;;;;;;;;;5101088;28;20047;-70
2022/03/30 08:43:54;;;;;;;9.60;6.82;;;;;;;;;;5102521;28;20458;-69
2022/03/30 08:46:20;;;;;;;12.30;6.60;;;;;;;;;;5108101;27;20034;-69
2022/03/30 08:48:45;;;;;;;7.85;6.65;;;;;;;;;;5100198;28;20051;-70
2022/03/30 08:51:12;;;;;;;8.25;6.20;;;;;;;;;;5103709;28;20092;-71
2022/03/30 08:53:37;;;;;;;7.40;6.07;;;;;;;;;;5103267;28;20027;-69
2022/03/30 08:56:03;;;;;;;7.00;5.95;;;;;;;;;;5084641;28;20338;-72
2022/03/30 08:58:29;;;;;;;8.68;5.60;;;;;;;;;;5101606;28;20130;-71
2022/03/30 09:01:06;;;;;;;8.13;5.55;;;;;;;;;;5103230;28;20111;-71
2022/03/30 09:03:31;;;;;;;9.50;6.50;;;;;;;;;;5098516;28;20024;-71
2022/03/30 09:05:56;;;;;;;9.93;6.53;;;;;;;;;;5104580;28;20068;-70
2022/03/30 09:08:25;;;;;;;8.45;5.68;;;;;;;;;;5098727;28;20031;-69
2022/03/30 09:10:52;;;;;;;8.05;6.35;;;;;;;;;;5101263;28;20027;-72
2022/03/30 09:13:20;;;;;;;9.00;6.38;;;;;;;;;;5101389;28;20019;-70
2022/03/30 09:15:47;;;;;;;8.77;6.20;;;;;;;;;;5104698;28;20028;-70
2022/03/30 09:18:14;;;;;;;12.88;6.30;;;;;;;;;;5096846;28;20015;-69
2022/03/30 09:20:40;;;;;;;9.18;6.50;;;;;;;;;;5103526;28;20040;-70
2022/03/30 09:23:08;;;;;;;8.63;6.20;;;;;;;;;;5101975;28;20385;-71
2022/03/30 09:25:34;;;;;;;10.10;7.28;;;;;;;;;;5110041;27;20015;-69
2022/03/30 09:28:01;;;;;;;10.05;6.20;;;;;;;;;;5123237;27;20033;-71
2022/03/30 09:30:28;;;;;;;8.43;6.38;;;;;;;;;;5120700;27;20040;-68
2022/03/30 09:32:55;;;;;;;12.35;6.95;;;;;;;;;;5111854;27;20015;-71
2022/03/30 09:35:33;;;;;;;10.27;6.78;;;;;;;;;;5100860;27;20480;-70
2022/03/30 09:38:10;;;;;;;9.57;6.35;;;;;;;;;;5096999;28;20374;-70
2022/03/30 09:40:36;;;;;;;8.05;6.10;;;;;;;;;;5109227;27;20068;-71
2022/03/30 09:43:14;;;;;;;8.13;5.90;;;;;;;;;;5143819;27;20027;-69
2022/03/30 09:45:39;;;;;;;7.55;6.20;;;;;;;;;;5142661;27;20360;-69
2022/03/30 09:48:11;;;;;;;9.70;6.72;;;;;;;;;;5141435;27;20018;-70
2022/03/30 09:50:41;;;;;;;8.73;6.37;;;;;;;;;;5125271;27;20019;-70
2022/03/30 09:53:11;;;;;;;9.98;6.40;;;;;;;;;;5122130;27;20026;-70
2022/03/30 09:55:36;;;;;;;8.02;5.82;;;;;;;;;;5085676;27;20019;-71
2022/03/30 09:58:05;;;;;;;8.88;7.03;;;;;;;;;;5080100;27;20458;-71
2022/03/30 10:00:30;;;;;;;10.15;7.10;;;;;;;;;;5100180;27;20696;-71
2022/03/30 10:02:56;;;;;;;9.18;6.70;;;;;;;;;;5117194;27;20035;-71
2022/03/30 10:05:22;;;;;;;9.23;6.97;;;;;;;;;;5084729;27;20039;-72
2022/03/30 10:07:48;;;;;;;7.97;6.13;;;;;;;;;;5122102;27;20442;-72
2022/03/30 10:10:14;;;;;;;11.00;6.57;;;;;;;;;;5100728;27;20064;-71
2022/03/30 10:12:39;;;;;;;9.95;7.07;;;;;;;;;;5093770;27;20110;-72
2022/03/30 10:15:05;;;;;;;9.27;6.88;;;;;;;;;;5139010;27;20101;-71
2022/03/30 10:17:32;;;;;;;10.45;6.10;;;;;;;;;;5089120;27;20030;-71
2022/03/30 10:19:58;;;;;;;10.23;6.80;;;;;;;;;;5087780;27;20041;-71
2022/03/30 10:22:23;;;;;;;7.35;6.00;;;;;;;;;;5099337;27;20023;-70
2022/03/30 10:24:49;;;;;;;7.10;5.53;;;;;;;;;;5122993;27;20138;-71
2022/03/30 10:27:21;;;;;;;7.30;6.53;;;;;;;;;;5099706;27;20015;-71
2022/03/30 10:29:49;;;;;;;10.10;6.95;;;;;;;;;;5137530;27;20042;-72
2022/03/30 10:32:19;;;;;;;8.70;6.47;;;;;;;;;;5087098;27;20465;-70
2022/03/30 10:34:53;;;;;;;9.68;6.00;;;;;;;;;;5089859;27;20469;-70
2022/03/30 10:37:24;;;;;;;8.77;6.20;;;;;;;;;;5120696;27;20019;-71
2022/03/30 10:39:54;;;;;;;8.93;5.90;;;;;;;;;;5104927;27;20450;-71
2022/03/30 10:42:19;;;;;;;7.40;6.03;;;;;;;;;;5117240;27;20047;-71
2022/03/30 10:44:46;;;;;;;9.32;6.20;;;;;;;;;;5087772;27;20573;-71
2022/03/30 10:47:17;;;;;;;7.70;6.00;;;;;;;;;;5099130;27;20532;-71
2022/03/30 10:49:54;;;;;;;8.20;5.60;;;;;;;;;;5108762;27;20067;-71
2022/03/30 10:52:27;;;;;;;8.75;5.72;;;;;;;;;;5126063;27;20026;-70
2022/03/30 10:55:13;;;;;;;7.82;5.57;;;;;;;;;;5103859;27;20577;-70
2022/03/30 10:57:48;;;;;;;6.30;5.32;;;;;;;;;;5082192;27;20039;-72
2022/03/30 11:00:18;;;;;;;8.25;5.82;;;;;;;;;;5121502;27;20452;-70
2022/03/30 11:02:43;;;;;;;7.80;5.05;;;;;;;;;;5108638;27;20072;-71
2022/03/30 11:05:10;;;;;;;6.03;4.80;;;;;;;;;;5125533;27;20027;-71
2022/03/30 11:07:36;;;;;;;7.82;5.28;;;;;;;;;;5121504;27;20555;-70
2022/03/30 11:10:17;;;;;;;7.43;5.43;;;;;;;;;;5146621;27;20023;-71
2022/03/30 11:13:12;;;;;;;8.25;5.13;;;;;;;;;;5140789;27;20114;-71
2022/03/30 11:15:56;;;;;;;7.25;5.25;;;;;;;;;;5103041;27;20031;-71
2022/03/30 11:18:21;;;;;;;7.28;4.43;;;;;;;;;;5137391;27;20015;-70
2022/03/30 11:21:05;;;;;;;6.32;4.78;;;;;;;;;;5144043;27;20453;-71
2022/03/30 11:23:30;;;;;;;7.38;5.00;;;;;;;;;;5122894;27;20385;-69
2022/03/30 11:25:56;;;;;;;6.20;4.53;;;;;;;;;;5125699;27;20019;-71
2022/03/30 11:28:33;;;;;;;6.57;5.25;;;;;;;;;;5138647;27;20030;-71
2022/03/30 11:31:01;;;;;;;5.47;4.68;;;;;;;;;;5143447;27;20367;-72
2022/03/30 11:33:27;;;;;;;5.68;4.88;;;;;;;;;;5137342;27;20054;-71
2022/03/30 11:35:52;;;;;;;6.30;4.40;;;;;;;;;;5144189;27;20014;-70
2022/03/30 11:38:21;;;;;;;6.82;5.32;;;;;;;;;;5122991;27;20388;-71
2022/03/30 11:40:47;;;;;;;9.55;4.88;;;;;;;;;;5142608;27;20045;-72
2022/03/30 11:43:13;;;;;;;7.47;5.20;;;;;;;;;;5120567;27;20034;-71
2022/03/30 11:45:39;;;;;;;5.85;4.80;;;;;;;;;;5107202;27;20037;-71
2022/03/30 11:48:10;;;;;;;7.85;5.35;;;;;;;;;;5138692;27;20364;-70
2022/03/30 11:50:35;;;;;;;9.25;5.00;;;;;;;;;;5141607;27;20467;-72
2022/03/30 11:53:05;;;;;;;5.32;4.65;;;;;;;;;;5125560;27;20105;-71
2022/03/30 11:55:51;;;;;;;8.52;5.13;;;;;;;;;;5144680;27;20045;-72
2022/03/30 11:58:23;;;;;;;7.15;5.35;;;;;;;;;;5143665;27;20035;-71
2022/03/30 12:00:49;;;;;;;8.35;4.82;;;;;;;;;;5129278;27;20588;-70
2022/03/30 12:03:14;;;;;;;7.18;4.80;;;;;;;;;;5116815;27;20031;-72
2022/03/30 12:05:39;;;;;;;7.55;5.00;;;;;;;;;;5125191;27;20432;-71
2022/03/30 12:08:05;;;;;;;6.13;5.10;;;;;;;;;;5124623;27;20110;-72
2022/03/30 12:10:31;;;;;;;7.13;4.88;;;;;;;;;;5106337;27;20039;-71
2022/03/30 12:12:57;;;;;;;7.15;4.45;;;;;;;;;;5105023;27;20023;-70
2022/03/30 12:15:23;;;;;;;6.25;4.70;;;;;;;;;;5107152;27;20019;-70
2022/03/30 12:17:49;;;;;;;6.05;4.53;;;;;;;;;;5097877;27;20469;-71
2022/03/30 12:20:22;;;;;;;9.48;4.63;;;;;;;;;;5108205;27;20027;-70
2022/03/30 12:22:53;;;;;;;4.80;3.83;;;;;;;;;;5074780;27;20118;-71
2022/03/30 12:25:18;;;;;;;7.95;4.22;;;;;;;;;;5096082;27;20461;-70
2022/03/30 12:27:44;;;;;;;5.80;4.40;;;;;;;;;;5121099;27;20080;-70
2022/03/30 12:30:09;;;;;;;5.63;4.13;;;;;;;;;;5105170;27;20411;-71
2022/03/30 12:32:35;;;;;;;8.43;4.28;;;;;;;;;;5083068;27;20058;-71
2022/03/30 12:35:07;;;;;;;4.88;4.32;;;;;;;;;;5090367;27;20023;-73
2022/03/30 12:37:33;;;;;;;5.30;4.28;;;;;;;;;;5091157;27;20035;-69
2022/03/30 12:40:06;;;;;;;5.90;4.47;;;;;;;;;;5095359;27;20030;-69
2022/03/30 12:42:33;;;;;;;23.90;5.70;;;;;;;;;;5096613;27;20097;-71
2022/03/30 12:45:00;;;;;;;6.05;3.80;;;;;;;;;;5095540;27;20027;-71
2022/03/30 12:47:29;;;;;;;8.60;3.85;;;;;;;;;;5090828;27;20094;-71
2022/03/30 12:49:55;;;;;;;6.55;4.00;;;;;;;;;;5107627;27;20015;-71
2022/03/30 12:52:23;;;;;;;6.22;4.18;;;;;;;;;;5123431;27;20034;-71
2022/03/30 12:54:52;;;;;;;5.38;4.28;;;;;;;;;;5091279;27;20118;-71
2022/03/30 12:57:27;;;;;;;22.52;6.00;;;;;;;;;;5118995;27;20053;-71
2022/03/30 12:59:52;;;;;;;6.38;4.05;;;;;;;;;;5101863;27;20019;-70
2022/03/30 13:02:19;;;;;;;5.80;3.90;;;;;;;;;;5104970;27;20029;-70
2022/03/30 13:04:48;;;;;;;5.85;4.15;;;;;;;;;;5113618;27;20868;-70
2022/03/30 13:07:14;;;;;;;4.20;3.65;;;;;;;;;;5135279;27;20026;-70
2022/03/30 13:09:59;;;;;;;8.63;4.22;;;;;;;;;;5092038;27;20023;-72
2022/03/30 13:12:44;;;;;;;5.18;4.10;;;;;;;;;;5122033;27;20015;-71
2022/03/30 13:15:14;;;;;;;7.65;4.00;;;;;;;;;;5125999;27;20019;-71
2022/03/30 13:17:58;;;;;;;4.95;3.35;;;;;;;;;;5122278;27;20030;-73
2022/03/30 13:20:26;;;;;;;6.10;3.88;;;;;;;;;;5125856;27;20117;-71
2022/03/30 13:22:55;;;;;;;6.38;3.90;;;;;;;;;;5122788;27;20030;-71
2022/03/30 13:25:29;;;;;;;5.72;4.20;;;;;;;;;;5141928;27;20018;-71
2022/03/30 13:27:54;;;;;;;4.45;3.30;;;;;;;;;;5126004;27;20015;-71
2022/03/30 13:30:20;;;;;;;7.47;4.53;;;;;;;;;;5144151;27;20091;-72
2022/03/30 13:32:45;;;;;;;6.90;4.32;;;;;;;;;;5122847;27;20029;-71
2022/03/30 13:35:10;;;;;;;6.72;3.78;;;;;;;;;;5107113;27;20109;-71
2022/03/30 13:37:36;;;;;;;8.32;3.85;;;;;;;;;;5125459;27;20050;-72
2022/03/30 13:40:01;;;;;;;4.13;3.58;;;;;;;;;;5126284;27;20073;-73
2022/03/30 13:42:27;;;;;;;5.88;4.00;;;;;;;;;;5127118;27;20497;-71
2022/03/30 13:44:54;;;;;;;5.82;4.03;;;;;;;;;;5124554;27;20015;-72
2022/03/30 13:47:19;;;;;;;6.32;3.88;;;;;;;;;;5121153;27;20022;-72
2022/03/30 13:49:47;;;;;;;5.57;4.20;;;;;;;;;;5104373;27;20025;-72
2022/03/30 13:52:14;;;;;;;6.22;4.07;;;;;;;;;;5126178;27;20145;-71
2022/03/30 13:54:39;;;;;;;6.75;3.65;;;;;;;;;;5141217;27;20042;-71
2022/03/30 13:57:05;;;;;;;5.70;3.72;;;;;;;;;;5123166;27;20501;-71
2022/03/30 13:59:30;;;;;;;4.45;3.60;;;;;;;;;;5144357;27;20026;-72
2022/03/30 14:01:56;;;;;;;6.32;3.47;;;;;;;;;;5103312;27;20497;-71
2022/03/30 14:04:21;;;;;;;6.72;3.88;;;;;;;;;;5116061;27;20122;-71
2022/03/30 14:06:47;;;;;;;7.45;4.10;;;;;;;;;;5130607;27;20026;-72
2022/03/30 14:09:13;;;;;;;5.55;4.20;;;;;;;;;;5116464;27;20015;-71
2022/03/30 14:11:38;;;;;;;5.78;4.15;;;;;;;;;;5116166;27;20018;-71
2022/03/30 14:14:05;;;;;;;4.93;4.00;;;;;;;;;;5095914;27;20338;-71
2022/03/30 14:16:30;;;;;;;4.60;3.55;;;;;;;;;;5123171;27;20157;-72
2022/03/30 14:18:56;;;;;;;4.85;4.00;;;;;;;;;;5119170;27;20048;-70
2022/03/30 14:21:21;;;;;;;6.55;3.67;;;;;;;;;;5136075;27;20532;-72
2022/03/30 14:23:47;;;;;;;4.88;4.13;;;;;;;;;;5133443;27;20030;-71
2022/03/30 14:26:12;;;;;;;6.72;4.13;;;;;;;;;;5105714;27;20027;-71
2022/03/30 14:28:38;;;;;;;6.43;4.20;;;;;;;;;;5122895;27;20034;-71
2022/03/30 14:31:03;;;;;;;5.40;4.20;;;;;;;;;;5143898;27;20026;-73
2022/03/30 14:33:30;;;;;;;6.80;4.28;;;;;;;;;;5107885;27;20085;-72